PWSweather.com
Personal Weather Stations
Station Observations
ITROMSHA6
HarstadNO 9407

HarstadNO 9407

Lat: 68.7814767, Lon: 16.5297091

Elevation: 145

Station Type: Davis Vantage Pro2

Latest ConditionsUpdated 8:55:18 AM GMT+01:01 Thursday, Dec 12, 2019
Currently Today's Max Today's Min Today's Average
Temperature 41.0°F5.0°C 42.8°F6.0°C 36.6°F2.6°C 40.3°F4.6°C
Dew Point 24.3°F-4.3°C 35.6°F2.0°C 24.1°F-4.4°C 30.0°F-1.1°C
Winds 7.0 mph SW11.3 kmh SW 15.0 mph -24.1 kmh - - 3.9 mph 6.3 kmh
Wind Gusts -- 19.0 mph30.6 kmh - -
Humidity 51% 85% 50% 68%
Pressure 29.06 in984.1 mb 29.08 in984.8 mb 29.05 in983.7 mb -
Precipitation - 0.02 in0.5 mm - -
Hour Temp Dew Point Humidity Winds Wind Gusts Pressure Precip Precip Rate Daily Precip Total
08:55 AM 41.0°F5.0°C 24.3°F-4.3°C 51% 7.0 mph SW11.3 kmh SW -- 29.06 in984.1 mb 0.00 in0.0 mm 0.00 in0.0 mm 0.02 in0.5 mm
08:50 AM 41.3°F5.2°C 24.1°F-4.4°C 50% 15.0 mph S24.1 kmh S -- 29.06 in984.1 mb 0.00 in0.0 mm 0.00 in0.0 mm 0.02 in0.5 mm
08:45 AM 40.9°F4.9°C 24.6°F-4.1°C 52% 9.0 mph SW14.5 kmh SW -- 29.06 in984.1 mb 0.00 in0.0 mm 0.00 in0.0 mm 0.02 in0.5 mm
08:40 AM 40.6°F4.8°C 24.8°F-4.0°C 53% 10.0 mph SSW16.1 kmh SSW -- 29.06 in984.1 mb 0.00 in0.0 mm 0.00 in0.0 mm 0.02 in0.5 mm
08:35 AM 40.3°F4.6°C 25.0°F-3.9°C 54% 6.0 mph SW9.7 kmh SW 10.0 mph16.1 kmh 29.05 in983.7 mb 0.00 in0.0 mm 0.00 in0.0 mm 0.02 in0.5 mm
08:30 AM 40.2°F4.6°C 25.0°F-3.9°C 54% 6.0 mph SSW9.7 kmh SSW -- 29.05 in983.7 mb 0.00 in0.0 mm 0.00 in0.0 mm 0.02 in0.5 mm
08:25 AM 40.2°F4.6°C 25.0°F-3.9°C 54% 10.0 mph S16.1 kmh S -- 29.06 in984.1 mb 0.00 in0.0 mm 0.00 in0.0 mm 0.02 in0.5 mm
08:20 AM 40.1°F4.5°C 24.8°F-4.0°C 54% 4.0 mph WSW6.4 kmh WSW -- 29.05 in983.7 mb 0.00 in0.0 mm 0.00 in0.0 mm 0.02 in0.5 mm
08:15 AM 40.0°F4.4°C 24.6°F-4.1°C 54% 2.0 mph SSW3.2 kmh SSW -- 29.05 in983.7 mb 0.00 in0.0 mm 0.00 in0.0 mm 0.02 in0.5 mm
08:10 AM 39.8°F4.3°C 25.0°F-3.9°C 55% 2.0 mph SW3.2 kmh SW 6.0 mph9.7 kmh 29.05 in983.7 mb 0.00 in0.0 mm 0.00 in0.0 mm 0.02 in0.5 mm
08:05 AM 40.1°F4.5°C 25.2°F-3.8°C 55% 1.0 mph WNW1.6 kmh WNW -- 29.05 in983.7 mb 0.00 in0.0 mm 0.00 in0.0 mm 0.02 in0.5 mm
08:00 AM 39.9°F4.4°C 25.2°F-3.8°C 55% 5.0 mph NW8.0 kmh NW -- 29.05 in983.7 mb 0.00 in0.0 mm 0.00 in0.0 mm 0.02 in0.5 mm
07:55 AM 39.7°F4.3°C 25.3°F-3.7°C 56% Calm Calm -- 29.05 in983.7 mb 0.00 in0.0 mm 0.00 in0.0 mm 0.02 in0.5 mm
07:50 AM 39.8°F4.3°C 25.3°F-3.7°C 56% Calm Calm -- 29.05 in983.7 mb 0.00 in0.0 mm 0.00 in0.0 mm 0.02 in0.5 mm
07:45 AM 39.7°F4.3°C 25.3°F-3.7°C 56% Calm Calm 8.0 mph12.9 kmh 29.05 in983.7 mb 0.00 in0.0 mm 0.00 in0.0 mm 0.02 in0.5 mm
07:40 AM 40.2°F4.6°C 25.0°F-3.9°C 54% Calm Calm -- 29.06 in984.1 mb 0.00 in0.0 mm 0.00 in0.0 mm 0.02 in0.5 mm
07:35 AM 40.2°F4.6°C 25.3°F-3.7°C 55% Calm Calm -- 29.06 in984.1 mb 0.00 in0.0 mm 0.00 in0.0 mm 0.02 in0.5 mm
07:30 AM 40.5°F4.7°C 25.2°F-3.8°C 54% Calm Calm -- 29.06 in984.1 mb 0.00 in0.0 mm 0.00 in0.0 mm 0.02 in0.5 mm
07:25 AM 40.5°F4.7°C 25.2°F-3.8°C 54% 4.0 mph SSW6.4 kmh SSW -- 29.06 in984.1 mb 0.00 in0.0 mm 0.00 in0.0 mm 0.02 in0.5 mm
07:20 AM 40.9°F4.9°C 25.5°F-3.6°C 54% 2.0 mph SW3.2 kmh SW 7.0 mph11.3 kmh 29.06 in984.1 mb 0.00 in0.0 mm 0.00 in0.0 mm 0.02 in0.5 mm
07:15 AM 40.9°F4.9°C 25.9°F-3.4°C 55% 5.0 mph WSW8.0 kmh WSW -- 29.05 in983.7 mb 0.00 in0.0 mm 0.00 in0.0 mm 0.02 in0.5 mm
07:10 AM 41.0°F5.0°C 25.7°F-3.5°C 54% 3.0 mph W4.8 kmh W -- 29.05 in983.7 mb 0.00 in0.0 mm 0.00 in0.0 mm 0.02 in0.5 mm
07:05 AM 41.5°F5.3°C 26.1°F-3.3°C 54% 2.0 mph ESE3.2 kmh ESE -- 29.05 in983.7 mb 0.00 in0.0 mm 0.00 in0.0 mm 0.02 in0.5 mm
07:00 AM 41.6°F5.3°C 25.2°F-3.8°C 52% 6.0 mph SW9.7 kmh SW -- 29.05 in983.7 mb 0.00 in0.0 mm 0.00 in0.0 mm 0.02 in0.5 mm
06:55 AM 41.5°F5.3°C 26.1°F-3.3°C 54% 6.0 mph SW9.7 kmh SW 15.0 mph24.1 kmh 29.05 in983.7 mb 0.00 in0.0 mm 0.00 in0.0 mm 0.02 in0.5 mm
06:50 AM 41.5°F5.3°C 26.1°F-3.3°C 54% 9.0 mph SW14.5 kmh SW -- 29.05 in983.7 mb 0.00 in0.0 mm 0.00 in0.0 mm 0.02 in0.5 mm
06:45 AM 41.6°F5.3°C 26.1°F-3.3°C 54% 5.0 mph SW8.0 kmh SW -- 29.05 in983.7 mb 0.00 in0.0 mm 0.00 in0.0 mm 0.02 in0.5 mm
06:40 AM 41.7°F5.4°C 26.2°F-3.2°C 54% 13.0 mph SW20.9 kmh SW -- 29.05 in983.7 mb 0.00 in0.0 mm 0.00 in0.0 mm 0.02 in0.5 mm
06:35 AM 41.8°F5.4°C 26.2°F-3.2°C 54% Calm Calm -- 29.05 in983.7 mb 0.00 in0.0 mm 0.00 in0.0 mm 0.02 in0.5 mm
06:30 AM 41.8°F5.4°C 26.2°F-3.2°C 54% 9.0 mph S14.5 kmh S 13.0 mph20.9 kmh 29.05 in983.7 mb 0.00 in0.0 mm 0.00 in0.0 mm 0.02 in0.5 mm
06:25 AM 41.9°F5.5°C 27.0°F-2.8°C 55% 7.0 mph WSW11.3 kmh WSW -- 29.05 in983.7 mb 0.00 in0.0 mm 0.00 in0.0 mm 0.02 in0.5 mm
06:20 AM 42.0°F5.6°C 27.1°F-2.7°C 55% 4.0 mph SSW6.4 kmh SSW -- 29.05 in983.7 mb 0.00 in0.0 mm 0.00 in0.0 mm 0.02 in0.5 mm
06:15 AM 42.1°F5.6°C 26.6°F-3.0°C 54% 4.0 mph SW6.4 kmh SW -- 29.05 in983.7 mb 0.00 in0.0 mm 0.00 in0.0 mm 0.02 in0.5 mm
06:10 AM 41.8°F5.4°C 26.8°F-2.9°C 55% 8.0 mph SW12.9 kmh SW -- 29.05 in983.7 mb 0.00 in0.0 mm 0.00 in0.0 mm 0.02 in0.5 mm
06:05 AM 41.3°F5.2°C 27.3°F-2.6°C 57% 3.0 mph SW4.8 kmh SW 11.0 mph17.7 kmh 29.05 in983.7 mb 0.00 in0.0 mm 0.00 in0.0 mm 0.02 in0.5 mm
06:00 AM 40.6°F4.8°C 27.0°F-2.8°C 58% 3.0 mph SSW4.8 kmh SSW -- 29.05 in983.7 mb 0.00 in0.0 mm 0.00 in0.0 mm 0.02 in0.5 mm
05:55 AM 40.7°F4.8°C 27.9°F-2.3°C 60% 2.0 mph S3.2 kmh S -- 29.05 in983.7 mb 0.00 in0.0 mm 0.00 in0.0 mm 0.02 in0.5 mm
05:50 AM 41.0°F5.0°C 28.2°F-2.1°C 60% Calm Calm -- 29.05 in983.7 mb 0.00 in0.0 mm 0.00 in0.0 mm 0.02 in0.5 mm
05:45 AM 41.0°F5.0°C 27.9°F-2.3°C 59% 4.0 mph WSW6.4 kmh WSW -- 29.05 in983.7 mb 0.00 in0.0 mm 0.00 in0.0 mm 0.02 in0.5 mm
05:40 AM 40.2°F4.6°C 27.9°F-2.3°C 61% 5.0 mph SW8.0 kmh SW 7.0 mph11.3 kmh 29.05 in983.7 mb 0.00 in0.0 mm 0.00 in0.0 mm 0.02 in0.5 mm
05:35 AM 39.9°F4.4°C 28.4°F-2.0°C 63% 5.0 mph SW8.0 kmh SW -- 29.05 in983.7 mb 0.00 in0.0 mm 0.00 in0.0 mm 0.02 in0.5 mm
05:30 AM 39.6°F4.2°C 28.0°F-2.2°C 63% 3.0 mph SW4.8 kmh SW -- 29.05 in983.7 mb 0.00 in0.0 mm 0.00 in0.0 mm 0.02 in0.5 mm
05:25 AM 39.5°F4.2°C 28.0°F-2.2°C 63% 3.0 mph SW4.8 kmh SW -- 29.05 in983.7 mb 0.00 in0.0 mm 0.00 in0.0 mm 0.02 in0.5 mm
05:20 AM 39.6°F4.2°C 28.0°F-2.2°C 63% 3.0 mph SW4.8 kmh SW -- 29.06 in984.1 mb 0.00 in0.0 mm 0.00 in0.0 mm 0.02 in0.5 mm
05:15 AM 40.4°F4.7°C 28.0°F-2.2°C 61% 1.0 mph SW1.6 kmh SW 6.0 mph9.7 kmh 29.06 in984.1 mb 0.00 in0.0 mm 0.00 in0.0 mm 0.02 in0.5 mm
05:10 AM 40.4°F4.7°C 28.4°F-2.0°C 62% 2.0 mph SW3.2 kmh SW -- 29.06 in984.1 mb 0.00 in0.0 mm 0.00 in0.0 mm 0.02 in0.5 mm
05:05 AM 40.9°F4.9°C 28.8°F-1.8°C 62% 3.0 mph S4.8 kmh S -- 29.06 in984.1 mb 0.00 in0.0 mm 0.00 in0.0 mm 0.02 in0.5 mm
05:00 AM 41.4°F5.2°C 28.9°F-1.7°C 61% Calm Calm -- 29.06 in984.1 mb 0.00 in0.0 mm 0.00 in0.0 mm 0.02 in0.5 mm
04:55 AM 41.8°F5.4°C 28.9°F-1.7°C 60% 1.0 mph SSW1.6 kmh SSW -- 29.06 in984.1 mb 0.00 in0.0 mm 0.00 in0.0 mm 0.02 in0.5 mm
04:50 AM 42.1°F5.6°C 28.8°F-1.8°C 59% 3.0 mph SW4.8 kmh SW 10.0 mph16.1 kmh 29.06 in984.1 mb 0.00 in0.0 mm 0.00 in0.0 mm 0.02 in0.5 mm
04:45 AM 42.4°F5.8°C 29.1°F-1.6°C 59% 2.0 mph SSW3.2 kmh SSW -- 29.06 in984.1 mb 0.00 in0.0 mm 0.00 in0.0 mm 0.02 in0.5 mm
04:40 AM 42.3°F5.7°C 28.9°F-1.7°C 59% 9.0 mph WSW14.5 kmh WSW -- 29.06 in984.1 mb 0.00 in0.0 mm 0.00 in0.0 mm 0.02 in0.5 mm
04:35 AM 42.5°F5.8°C 28.8°F-1.8°C 58% 4.0 mph SSW6.4 kmh SSW -- 29.06 in984.1 mb 0.00 in0.0 mm 0.00 in0.0 mm 0.02 in0.5 mm
04:30 AM 42.8°F6.0°C 29.1°F-1.6°C 58% 1.0 mph SSW1.6 kmh SSW -- 29.06 in984.1 mb 0.00 in0.0 mm 0.00 in0.0 mm 0.02 in0.5 mm
04:25 AM 42.6°F5.9°C 29.3°F-1.5°C 59% 11.0 mph SW17.7 kmh SW 13.0 mph20.9 kmh 29.06 in984.1 mb 0.00 in0.0 mm 0.00 in0.0 mm 0.02 in0.5 mm
04:20 AM 42.2°F5.7°C 29.8°F-1.2°C 61% 8.0 mph SW12.9 kmh SW -- 29.06 in984.1 mb 0.00 in0.0 mm 0.00 in0.0 mm 0.02 in0.5 mm
04:15 AM 42.1°F5.6°C 30.4°F-0.9°C 63% 7.0 mph SW11.3 kmh SW -- 29.06 in984.1 mb 0.00 in0.0 mm 0.00 in0.0 mm 0.02 in0.5 mm
04:10 AM 41.8°F5.4°C 30.4°F-0.9°C 64% 8.0 mph SW12.9 kmh SW -- 29.06 in984.1 mb 0.00 in0.0 mm 0.00 in0.0 mm 0.02 in0.5 mm
04:05 AM 41.4°F5.2°C 30.9°F-0.6°C 66% 6.0 mph S9.7 kmh S -- 29.06 in984.1 mb 0.00 in0.0 mm 0.00 in0.0 mm 0.02 in0.5 mm
04:00 AM 40.7°F4.8°C 31.3°F-0.4°C 69% 5.0 mph WSW8.0 kmh WSW 9.0 mph14.5 kmh 29.06 in984.1 mb 0.00 in0.0 mm 0.00 in0.0 mm 0.02 in0.5 mm
03:55 AM 40.6°F4.8°C 32.0°F0.0°C 71% 3.0 mph WSW4.8 kmh WSW -- 29.06 in984.1 mb 0.00 in0.0 mm 0.00 in0.0 mm 0.02 in0.5 mm
03:50 AM 40.2°F4.6°C 32.4°F0.2°C 73% 2.0 mph SSW3.2 kmh SSW -- 29.06 in984.1 mb 0.00 in0.0 mm 0.00 in0.0 mm 0.02 in0.5 mm
03:45 AM 39.2°F4.0°C 32.4°F0.2°C 76% 5.0 mph S8.0 kmh S -- 29.06 in984.1 mb 0.00 in0.0 mm 0.00 in0.0 mm 0.02 in0.5 mm
03:40 AM 38.0°F3.3°C 32.0°F0.0°C 79% 2.0 mph SW3.2 kmh SW -- 29.06 in984.1 mb 0.00 in0.0 mm 0.00 in0.0 mm 0.02 in0.5 mm
03:35 AM 37.4°F3.0°C 32.4°F0.2°C 82% 1.0 mph SW1.6 kmh SW 3.0 mph4.8 kmh 29.07 in984.4 mb 0.00 in0.0 mm 0.00 in0.0 mm 0.02 in0.5 mm
03:30 AM 36.9°F2.7°C 32.2°F0.1°C 83% Calm Calm -- 29.07 in984.4 mb 0.00 in0.0 mm 0.00 in0.0 mm 0.02 in0.5 mm
03:25 AM 36.9°F2.7°C 32.5°F0.3°C 84% 1.0 mph NE1.6 kmh NE -- 29.07 in984.4 mb 0.00 in0.0 mm 0.00 in0.0 mm 0.02 in0.5 mm
03:20 AM 36.8°F2.7°C 32.5°F0.3°C 84% Calm Calm -- 29.07 in984.4 mb 0.00 in0.0 mm 0.00 in0.0 mm 0.02 in0.5 mm
03:15 AM 36.6°F2.6°C 32.0°F0.0°C 83% Calm Calm -- 29.07 in984.4 mb 0.00 in0.0 mm 0.00 in0.0 mm 0.02 in0.5 mm
03:10 AM 36.9°F2.7°C 31.8°F-0.1°C 82% Calm Calm 3.0 mph4.8 kmh 29.07 in984.4 mb 0.00 in0.0 mm 0.00 in0.0 mm 0.02 in0.5 mm
03:05 AM 37.6°F3.1°C 32.4°F0.2°C 81% Calm Calm -- 29.07 in984.4 mb 0.00 in0.0 mm 0.00 in0.0 mm 0.02 in0.5 mm
03:00 AM 37.9°F3.3°C 32.7°F0.4°C 81% Calm Calm -- 29.07 in984.4 mb 0.00 in0.0 mm 0.00 in0.0 mm 0.02 in0.5 mm
02:55 AM 38.4°F3.6°C 32.9°F0.5°C 80% 1.0 mph NE1.6 kmh NE -- 29.07 in984.4 mb 0.00 in0.0 mm 0.00 in0.0 mm 0.02 in0.5 mm
02:50 AM 38.8°F3.8°C 32.9°F0.5°C 79% Calm Calm -- 29.08 in984.8 mb 0.00 in0.0 mm 0.00 in0.0 mm 0.02 in0.5 mm
02:45 AM 39.2°F4.0°C 32.9°F0.5°C 78% Calm Calm 3.0 mph4.8 kmh 29.07 in984.4 mb 0.00 in0.0 mm 0.00 in0.0 mm 0.02 in0.5 mm
02:40 AM 40.0°F4.4°C 32.9°F0.5°C 76% Calm Calm -- 29.07 in984.4 mb 0.00 in0.0 mm 0.00 in0.0 mm 0.02 in0.5 mm
02:35 AM 40.9°F4.9°C 33.4°F0.8°C 75% 3.0 mph NE4.8 kmh NE -- 29.07 in984.4 mb 0.01 in0.3 mm 0.00 in0.0 mm 0.02 in0.5 mm
02:30 AM 41.2°F5.1°C 33.8°F1.0°C 75% 1.0 mph S1.6 kmh S -- 29.08 in984.8 mb 0.01 in0.3 mm 0.00 in0.0 mm 0.02 in0.5 mm
02:25 AM 41.3°F5.2°C 34.0°F1.1°C 75% 6.0 mph S9.7 kmh S -- 29.08 in984.8 mb 0.01 in0.3 mm 0.00 in0.0 mm 0.02 in0.5 mm
02:20 AM 40.8°F4.9°C 34.2°F1.2°C 77% 5.0 mph SW8.0 kmh SW 13.0 mph20.9 kmh 29.08 in984.8 mb 0.01 in0.3 mm 0.00 in0.0 mm 0.02 in0.5 mm
02:15 AM 39.6°F4.2°C 34.0°F1.1°C 80% 4.0 mph SW6.4 kmh SW -- 29.08 in984.8 mb 0.01 in0.3 mm 0.00 in0.0 mm 0.02 in0.5 mm
02:10 AM 38.8°F3.8°C 33.3°F0.7°C 80% 5.0 mph S8.0 kmh S -- 29.08 in984.8 mb 0.01 in0.3 mm 0.00 in0.0 mm 0.02 in0.5 mm
02:05 AM 38.8°F3.8°C 33.3°F0.7°C 80% 1.0 mph NNW1.6 kmh NNW -- 29.08 in984.8 mb 0.01 in0.3 mm 0.00 in0.0 mm 0.02 in0.5 mm
02:00 AM 38.8°F3.8°C 33.3°F0.7°C 80% Calm Calm -- 29.08 in984.8 mb 0.01 in0.3 mm 0.00 in0.0 mm 0.02 in0.5 mm
01:55 AM 39.3°F4.1°C 33.8°F1.0°C 80% Calm Calm 4.0 mph6.4 kmh 29.08 in984.8 mb 0.01 in0.3 mm 0.00 in0.0 mm 0.02 in0.5 mm
01:50 AM 40.1°F4.5°C 33.8°F1.0°C 78% Calm Calm -- 29.08 in984.8 mb 0.01 in0.3 mm 0.00 in0.0 mm 0.02 in0.5 mm
01:45 AM 40.9°F4.9°C 34.2°F1.2°C 77% 3.0 mph WNW4.8 kmh WNW -- 29.08 in984.8 mb 0.01 in0.3 mm 0.00 in0.0 mm 0.02 in0.5 mm
01:40 AM 41.2°F5.1°C 34.2°F1.2°C 76% 1.0 mph S1.6 kmh S -- 29.07 in984.4 mb 0.01 in0.3 mm 0.12 in3.0 mm 0.02 in0.5 mm
01:35 AM 40.9°F4.9°C 34.2°F1.2°C 77% 5.0 mph S8.0 kmh S -- 29.07 in984.4 mb 0.00 in0.0 mm 0.00 in0.0 mm 0.02 in0.5 mm
01:30 AM 40.5°F4.7°C 34.5°F1.4°C 79% 3.0 mph S4.8 kmh S 11.0 mph17.7 kmh 29.07 in984.4 mb 0.00 in0.0 mm 0.00 in0.0 mm 0.02 in0.5 mm
01:25 AM 40.2°F4.6°C 34.7°F1.5°C 80% 5.0 mph S8.0 kmh S -- 29.08 in984.8 mb 0.00 in0.0 mm 0.00 in0.0 mm 0.02 in0.5 mm
01:20 AM 39.8°F4.3°C 34.3°F1.3°C 81% 6.0 mph S9.7 kmh S -- 29.08 in984.8 mb 0.00 in0.0 mm 0.00 in0.0 mm 0.02 in0.5 mm
01:15 AM 39.9°F4.4°C 34.9°F1.6°C 82% Calm Calm -- 29.08 in984.8 mb 0.00 in0.0 mm 0.00 in0.0 mm 0.02 in0.5 mm
01:10 AM 40.0°F4.4°C 34.9°F1.6°C 82% 2.0 mph SSW3.2 kmh SSW -- 29.08 in984.8 mb 0.01 in0.3 mm 0.00 in0.0 mm 0.02 in0.5 mm
01:05 AM 39.8°F4.3°C 35.1°F1.7°C 83% 7.0 mph SW11.3 kmh SW 11.0 mph17.7 kmh 29.08 in984.8 mb 0.02 in0.5 mm 0.00 in0.0 mm 0.02 in0.5 mm
01:00 AM 39.7°F4.3°C 35.1°F1.7°C 83% 3.0 mph SW4.8 kmh SW -- 29.08 in984.8 mb 0.02 in0.5 mm 0.00 in0.0 mm 0.02 in0.5 mm
12:55 AM 39.7°F4.3°C 35.2°F1.8°C 84% 4.0 mph SW6.4 kmh SW -- 29.08 in984.8 mb 0.02 in0.5 mm 0.00 in0.0 mm 0.02 in0.5 mm
12:50 AM 39.7°F4.3°C 35.2°F1.8°C 84% 1.0 mph SW1.6 kmh SW -- 29.08 in984.8 mb 0.02 in0.5 mm 0.00 in0.0 mm 0.02 in0.5 mm
12:45 AM 39.7°F4.3°C 35.2°F1.8°C 84% 7.0 mph SW11.3 kmh SW -- 29.08 in984.8 mb 0.02 in0.5 mm 0.00 in0.0 mm 0.02 in0.5 mm
12:40 AM 39.7°F4.3°C 35.2°F1.8°C 84% 7.0 mph SW11.3 kmh SW 10.0 mph16.1 kmh 29.08 in984.8 mb 0.03 in0.8 mm 0.00 in0.0 mm 0.02 in0.5 mm
12:35 AM 39.8°F4.3°C 35.2°F1.8°C 84% 2.0 mph SSW3.2 kmh SSW -- 29.08 in984.8 mb 0.03 in0.8 mm 0.00 in0.0 mm 0.02 in0.5 mm
12:30 AM 39.6°F4.2°C 35.4°F1.9°C 85% 9.0 mph SSW14.5 kmh SSW -- 29.08 in984.8 mb 0.03 in0.8 mm 0.00 in0.0 mm 0.02 in0.5 mm
12:25 AM 39.6°F4.2°C 35.4°F1.9°C 85% 5.0 mph SW8.0 kmh SW -- 29.08 in984.8 mb 0.04 in1.0 mm 0.00 in0.0 mm 0.02 in0.5 mm
12:20 AM 39.6°F4.2°C 35.4°F1.9°C 85% 7.0 mph SW11.3 kmh SW -- 29.08 in984.8 mb 0.04 in1.0 mm 0.00 in0.0 mm 0.02 in0.5 mm
12:15 AM 39.8°F4.3°C 35.6°F2.0°C 85% 8.0 mph SW12.9 kmh SW 19.0 mph30.6 kmh 29.08 in984.8 mb 0.05 in1.3 mm 0.12 in3.0 mm 0.02 in0.5 mm
12:10 AM 39.8°F4.3°C 35.6°F2.0°C 85% 9.0 mph S14.5 kmh S -- 29.07 in984.4 mb 0.04 in1.0 mm 0.12 in3.0 mm 0.01 in0.3 mm
12:05 AM 39.8°F4.3°C 35.6°F2.0°C 85% 14.0 mph SSE22.5 kmh SSE -- 29.07 in984.4 mb 0.03 in0.8 mm 0.00 in0.0 mm 0.03 in0.8 mm
12:00 AM 39.6°F4.2°C 35.4°F1.9°C 85% 4.0 mph SSW6.4 kmh SSW -- 29.08 in984.8 mb 0.03 in0.8 mm 0.00 in0.0 mm 0.03 in0.8 mm